sensor_id;sensor_type;location;lat;lon;timestamp;P1;durP1;ratioP1;P2;durP2;ratioP2
23543;SDS011;11950;51.230;4.012;2022-11-28T00:01:31;5.20;;;3.55;;
23543;SDS011;11950;51.230;4.012;2022-11-28T00:04:01;4.60;;;2.45;;
23543;SDS011;11950;51.230;4.012;2022-11-28T00:06:27;3.40;;;2.55;;
23543;SDS011;11950;51.230;4.012;2022-11-28T00:08:54;5.30;;;2.42;;
23543;SDS011;11950;51.230;4.012;2022-11-28T00:11:23;4.43;;;1.92;;
23543;SDS011;11950;51.230;4.012;2022-11-28T00:13:49;6.97;;;2.75;;
23543;SDS011;11950;51.230;4.012;2022-11-28T00:16:17;5.55;;;2.80;;
23543;SDS011;11950;51.230;4.012;2022-11-28T00:18:46;4.68;;;2.67;;
23543;SDS011;11950;51.230;4.012;2022-11-28T00:21:13;5.10;;;2.72;;
23543;SDS011;11950;51.230;4.012;2022-11-28T00:23:40;6.18;;;2.50;;
23543;SDS011;11950;51.230;4.012;2022-11-28T00:26:13;3.53;;;2.85;;
23543;SDS011;11950;51.230;4.012;2022-11-28T00:28:41;5.25;;;2.92;;
23543;SDS011;11950;51.230;4.012;2022-11-28T00:31:14;4.45;;;2.78;;
23543;SDS011;11950;51.230;4.012;2022-11-28T00:33:42;4.45;;;2.85;;
23543;SDS011;11950;51.230;4.012;2022-11-28T00:36:09;4.18;;;2.70;;
23543;SDS011;11950;51.230;4.012;2022-11-28T00:38:36;3.25;;;2.70;;
23543;SDS011;11950;51.230;4.012;2022-11-28T00:41:04;5.55;;;3.00;;
23543;SDS011;11950;51.230;4.012;2022-11-28T00:43:33;5.15;;;3.20;;
23543;SDS011;11950;51.230;4.012;2022-11-28T00:45:59;4.28;;;2.63;;
23543;SDS011;11950;51.230;4.012;2022-11-28T00:48:26;5.40;;;2.55;;
23543;SDS011;11950;51.230;4.012;2022-11-28T00:50:53;4.30;;;2.72;;
23543;SDS011;11950;51.230;4.012;2022-11-28T00:53:20;6.82;;;3.10;;
23543;SDS011;11950;51.230;4.012;2022-11-28T00:55:46;4.03;;;2.90;;
23543;SDS011;11950;51.230;4.012;2022-11-28T00:58:12;5.43;;;2.90;;
23543;SDS011;11950;51.230;4.012;2022-11-28T01:00:39;6.22;;;2.80;;
23543;SDS011;11950;51.230;4.012;2022-11-28T01:03:05;8.50;;;3.25;;
23543;SDS011;11950;51.230;4.012;2022-11-28T01:05:31;5.93;;;3.25;;
23543;SDS011;11950;51.230;4.012;2022-11-28T01:07:57;6.38;;;2.88;;
23543;SDS011;11950;51.230;4.012;2022-11-28T01:10:23;3.60;;;2.65;;
23543;SDS011;11950;51.230;4.012;2022-11-28T01:12:51;4.90;;;3.00;;
23543;SDS011;11950;51.230;4.012;2022-11-28T01:15:17;5.82;;;3.42;;
23543;SDS011;11950;51.230;4.012;2022-11-28T01:17:44;3.95;;;3.28;;
23543;SDS011;11950;51.230;4.012;2022-11-28T01:20:10;7.03;;;3.20;;
23543;SDS011;11950;51.230;4.012;2022-11-28T01:22:37;4.75;;;3.50;;
23543;SDS011;11950;51.230;4.012;2022-11-28T01:25:03;4.80;;;3.08;;
23543;SDS011;11950;51.230;4.012;2022-11-28T01:27:29;6.20;;;3.05;;
23543;SDS011;11950;51.230;4.012;2022-11-28T01:29:56;7.00;;;3.67;;
23543;SDS011;11950;51.230;4.012;2022-11-28T01:32:22;5.88;;;3.30;;
23543;SDS011;11950;51.230;4.012;2022-11-28T01:34:48;3.90;;;3.15;;
23543;SDS011;11950;51.230;4.012;2022-11-28T01:37:14;7.15;;;3.42;;
23543;SDS011;11950;51.230;4.012;2022-11-28T01:39:41;6.32;;;3.35;;
23543;SDS011;11950;51.230;4.012;2022-11-28T01:42:10;7.07;;;3.40;;
23543;SDS011;11950;51.230;4.012;2022-11-28T01:47:07;6.80;;;3.47;;
23543;SDS011;11950;51.230;4.012;2022-11-28T01:49:34;6.20;;;3.72;;
23543;SDS011;11950;51.230;4.012;2022-11-28T01:52:03;6.60;;;3.60;;
23543;SDS011;11950;51.230;4.012;2022-11-28T01:54:32;6.25;;;3.47;;
23543;SDS011;11950;51.230;4.012;2022-11-28T01:57:02;6.93;;;3.70;;
23543;SDS011;11950;51.230;4.012;2022-11-28T01:59:34;5.40;;;3.58;;
23543;SDS011;11950;51.230;4.012;2022-11-28T02:02:06;7.30;;;4.00;;
23543;SDS011;11950;51.230;4.012;2022-11-28T02:04:39;5.38;;;3.40;;
23543;SDS011;11950;51.230;4.012;2022-11-28T02:07:06;5.95;;;3.72;;
23543;SDS011;11950;51.230;4.012;2022-11-28T02:09:33;4.70;;;3.80;;
23543;SDS011;11950;51.230;4.012;2022-11-28T02:20:37;5.30;;;3.70;;
23543;SDS011;11950;51.230;4.012;2022-11-28T02:23:29;6.45;;;4.75;;
23543;SDS011;11950;51.230;4.012;2022-11-28T02:40:02;5.75;;;3.85;;
23543;SDS011;11950;51.230;4.012;2022-11-28T02:42:42;4.80;;;4.30;;
23543;SDS011;11950;51.230;4.012;2022-11-28T02:48:18;7.63;;;4.47;;
23543;SDS011;11950;51.230;4.012;2022-11-28T02:51:01;4.72;;;4.18;;
23543;SDS011;11950;51.230;4.012;2022-11-28T02:53:34;4.28;;;3.92;;
23543;SDS011;11950;51.230;4.012;2022-11-28T02:56:02;6.63;;;4.10;;
23543;SDS011;11950;51.230;4.012;2022-11-28T02:58:29;5.88;;;4.55;;
23543;SDS011;11950;51.230;4.012;2022-11-28T03:00:55;5.38;;;4.72;;
23543;SDS011;11950;51.230;4.012;2022-11-28T03:11:41;4.93;;;4.20;;
23543;SDS011;11950;51.230;4.012;2022-11-28T03:14:17;6.07;;;4.90;;
23543;SDS011;11950;51.230;4.012;2022-11-28T03:19:37;6.55;;;4.22;;
23543;SDS011;11950;51.230;4.012;2022-11-28T03:22:19;7.80;;;5.03;;
23543;SDS011;11950;51.230;4.012;2022-11-28T03:24:59;6.78;;;5.00;;
23543;SDS011;11950;51.230;4.012;2022-11-28T03:27:41;7.05;;;4.72;;
23543;SDS011;11950;51.230;4.012;2022-11-28T03:32:56;5.20;;;4.70;;
23543;SDS011;11950;51.230;4.012;2022-11-28T03:35:27;7.47;;;4.75;;
23543;SDS011;11950;51.230;4.012;2022-11-28T03:37:59;6.07;;;5.03;;
23543;SDS011;11950;51.230;4.012;2022-11-28T03:40:32;6.78;;;5.20;;
23543;SDS011;11950;51.230;4.012;2022-11-28T03:43:04;5.35;;;4.85;;
23543;SDS011;11950;51.230;4.012;2022-11-28T03:45:36;5.30;;;4.78;;
23543;SDS011;11950;51.230;4.012;2022-11-28T03:48:07;6.55;;;5.22;;
23543;SDS011;11950;51.230;4.012;2022-11-28T03:50:47;7.80;;;5.13;;
23543;SDS011;11950;51.230;4.012;2022-11-28T03:53:19;8.75;;;5.75;;
23543;SDS011;11950;51.230;4.012;2022-11-28T03:55:56;5.75;;;5.25;;
23543;SDS011;11950;51.230;4.012;2022-11-28T03:58:52;6.38;;;5.43;;
23543;SDS011;11950;51.230;4.012;2022-11-28T04:09:49;9.38;;;6.70;;
23543;SDS011;11950;51.230;4.012;2022-11-28T04:20:25;8.57;;;6.88;;
23543;SDS011;11950;51.230;4.012;2022-11-28T04:23:01;9.68;;;7.70;;
23543;SDS011;11950;51.230;4.012;2022-11-28T04:25:33;9.23;;;6.70;;
23543;SDS011;11950;51.230;4.012;2022-11-28T04:28:07;10.02;;;7.15;;
23543;SDS011;11950;51.230;4.012;2022-11-28T04:30:37;11.93;;;8.02;;
23543;SDS011;11950;51.230;4.012;2022-11-28T04:33:06;12.13;;;7.85;;
23543;SDS011;11950;51.230;4.012;2022-11-28T04:35:37;10.77;;;7.88;;
23543;SDS011;11950;51.230;4.012;2022-11-28T04:38:06;11.15;;;8.05;;
23543;SDS011;11950;51.230;4.012;2022-11-28T04:41:09;12.75;;;7.88;;
23543;SDS011;11950;51.230;4.012;2022-11-28T04:43:36;12.73;;;8.55;;
23543;SDS011;11950;51.230;4.012;2022-11-28T04:46:08;13.10;;;8.77;;
23543;SDS011;11950;51.230;4.012;2022-11-28T04:48:39;11.88;;;8.75;;
23543;SDS011;11950;51.230;4.012;2022-11-28T04:51:15;16.13;;;9.48;;
23543;SDS011;11950;51.230;4.012;2022-11-28T04:53:47;15.60;;;10.00;;
23543;SDS011;11950;51.230;4.012;2022-11-28T04:57:00;19.15;;;10.32;;
23543;SDS011;11950;51.230;4.012;2022-11-28T04:59:32;11.80;;;9.18;;
23543;SDS011;11950;51.230;4.012;2022-11-28T05:02:00;16.30;;;9.95;;
23543;SDS011;11950;51.230;4.012;2022-11-28T05:04:28;17.30;;;9.50;;
23543;SDS011;11950;51.230;4.012;2022-11-28T05:07:02;16.38;;;10.13;;
23543;SDS011;11950;51.230;4.012;2022-11-28T05:09:29;16.60;;;10.57;;
23543;SDS011;11950;51.230;4.012;2022-11-28T05:11:55;15.38;;;10.60;;
23543;SDS011;11950;51.230;4.012;2022-11-28T05:14:22;13.30;;;10.25;;
23543;SDS011;11950;51.230;4.012;2022-11-28T05:16:48;15.52;;;10.65;;
23543;SDS011;11950;51.230;4.012;2022-11-28T05:19:14;17.60;;;11.77;;
23543;SDS011;11950;51.230;4.012;2022-11-28T05:21:41;15.88;;;11.00;;
23543;SDS011;11950;51.230;4.012;2022-11-28T05:24:08;24.63;;;11.13;;
23543;SDS011;11950;51.230;4.012;2022-11-28T05:26:34;19.65;;;11.27;;
23543;SDS011;11950;51.230;4.012;2022-11-28T05:29:00;17.90;;;12.13;;
23543;SDS011;11950;51.230;4.012;2022-11-28T05:31:27;16.58;;;11.85;;
23543;SDS011;11950;51.230;4.012;2022-11-28T05:33:54;18.70;;;12.68;;
23543;SDS011;11950;51.230;4.012;2022-11-28T05:36:21;19.15;;;12.82;;
23543;SDS011;11950;51.230;4.012;2022-11-28T05:38:48;18.48;;;12.77;;
23543;SDS011;11950;51.230;4.012;2022-11-28T05:41:21;19.48;;;13.75;;
23543;SDS011;11950;51.230;4.012;2022-11-28T05:43:52;20.33;;;13.50;;
23543;SDS011;11950;51.230;4.012;2022-11-28T05:46:19;20.35;;;13.52;;
23543;SDS011;11950;51.230;4.012;2022-11-28T05:48:46;27.42;;;14.32;;
23543;SDS011;11950;51.230;4.012;2022-11-28T05:51:12;18.90;;;14.20;;
23543;SDS011;11950;51.230;4.012;2022-11-28T05:53:39;22.42;;;14.45;;
23543;SDS011;11950;51.230;4.012;2022-11-28T05:58:36;19.30;;;13.88;;
23543;SDS011;11950;51.230;4.012;2022-11-28T06:01:12;23.45;;;14.32;;
23543;SDS011;11950;51.230;4.012;2022-11-28T06:03:46;22.45;;;14.23;;
23543;SDS011;11950;51.230;4.012;2022-11-28T06:06:19;21.50;;;14.85;;
23543;SDS011;11950;51.230;4.012;2022-11-28T06:08:47;22.80;;;15.43;;
23543;SDS011;11950;51.230;4.012;2022-11-28T06:11:14;22.80;;;15.82;;
23543;SDS011;11950;51.230;4.012;2022-11-28T06:13:41;24.30;;;15.73;;
23543;SDS011;11950;51.230;4.012;2022-11-28T06:16:09;23.75;;;16.55;;
23543;SDS011;11950;51.230;4.012;2022-11-28T06:18:37;26.42;;;15.70;;
23543;SDS011;11950;51.230;4.012;2022-11-28T06:21:05;24.85;;;16.58;;
23543;SDS011;11950;51.230;4.012;2022-11-28T06:23:33;23.02;;;15.50;;
23543;SDS011;11950;51.230;4.012;2022-11-28T06:26:05;26.25;;;16.55;;
23543;SDS011;11950;51.230;4.012;2022-11-28T06:28:42;21.58;;;15.38;;
23543;SDS011;11950;51.230;4.012;2022-11-28T06:31:18;21.15;;;15.45;;
23543;SDS011;11950;51.230;4.012;2022-11-28T06:33:47;23.80;;;16.42;;
23543;SDS011;11950;51.230;4.012;2022-11-28T06:36:14;23.25;;;16.17;;
23543;SDS011;11950;51.230;4.012;2022-11-28T06:38:41;23.17;;;15.52;;
23543;SDS011;11950;51.230;4.012;2022-11-28T06:41:09;21.45;;;15.68;;
23543;SDS011;11950;51.230;4.012;2022-11-28T06:43:37;22.48;;;15.43;;
23543;SDS011;11950;51.230;4.012;2022-11-28T06:46:04;25.17;;;16.00;;
23543;SDS011;11950;51.230;4.012;2022-11-28T06:48:30;24.02;;;16.85;;
23543;SDS011;11950;51.230;4.012;2022-11-28T06:51:00;25.20;;;17.42;;
23543;SDS011;11950;51.230;4.012;2022-11-28T06:55:54;24.98;;;15.98;;
23543;SDS011;11950;51.230;4.012;2022-11-28T06:58:21;26.00;;;16.83;;
23543;SDS011;11950;51.230;4.012;2022-11-28T07:00:47;23.95;;;16.70;;
23543;SDS011;11950;51.230;4.012;2022-11-28T07:03:13;24.73;;;17.10;;
23543;SDS011;11950;51.230;4.012;2022-11-28T07:05:40;26.98;;;17.00;;
23543;SDS011;11950;51.230;4.012;2022-11-28T07:08:06;22.10;;;15.45;;
23543;SDS011;11950;51.230;4.012;2022-11-28T07:10:32;20.48;;;15.43;;
23543;SDS011;11950;51.230;4.012;2022-11-28T07:12:59;26.23;;;17.50;;
23543;SDS011;11950;51.230;4.012;2022-11-28T07:15:26;23.52;;;16.38;;
23543;SDS011;11950;51.230;4.012;2022-11-28T07:17:52;22.50;;;16.55;;
23543;SDS011;11950;51.230;4.012;2022-11-28T07:20:19;25.35;;;17.42;;
23543;SDS011;11950;51.230;4.012;2022-11-28T07:22:48;23.80;;;16.73;;
23543;SDS011;11950;51.230;4.012;2022-11-28T07:25:15;22.63;;;16.88;;
23543;SDS011;11950;51.230;4.012;2022-11-28T07:27:41;24.08;;;16.63;;
23543;SDS011;11950;51.230;4.012;2022-11-28T07:30:08;25.02;;;17.48;;
23543;SDS011;11950;51.230;4.012;2022-11-28T07:32:34;23.83;;;16.38;;
23543;SDS011;11950;51.230;4.012;2022-11-28T07:35:04;22.75;;;17.23;;
23543;SDS011;11950;51.230;4.012;2022-11-28T07:37:32;24.02;;;17.50;;
23543;SDS011;11950;51.230;4.012;2022-11-28T07:39:59;24.10;;;17.58;;
23543;SDS011;11950;51.230;4.012;2022-11-28T07:42:26;25.50;;;16.90;;
23543;SDS011;11950;51.230;4.012;2022-11-28T07:45:02;24.40;;;16.83;;
23543;SDS011;11950;51.230;4.012;2022-11-28T07:47:29;25.60;;;17.15;;
23543;SDS011;11950;51.230;4.012;2022-11-28T07:49:55;23.85;;;17.25;;
23543;SDS011;11950;51.230;4.012;2022-11-28T07:52:22;28.45;;;17.83;;
23543;SDS011;11950;51.230;4.012;2022-11-28T07:54:48;23.23;;;16.73;;
23543;SDS011;11950;51.230;4.012;2022-11-28T07:57:15;22.88;;;15.93;;
23543;SDS011;11950;51.230;4.012;2022-11-28T07:59:41;23.35;;;16.10;;
23543;SDS011;11950;51.230;4.012;2022-11-28T08:02:09;25.67;;;16.92;;
23543;SDS011;11950;51.230;4.012;2022-11-28T08:04:36;21.17;;;16.20;;
23543;SDS011;11950;51.230;4.012;2022-11-28T08:07:02;23.35;;;15.68;;
23543;SDS011;11950;51.230;4.012;2022-11-28T08:09:29;21.50;;;16.05;;
23543;SDS011;11950;51.230;4.012;2022-11-28T08:11:56;22.83;;;16.20;;
23543;SDS011;11950;51.230;4.012;2022-11-28T08:14:23;22.92;;;16.80;;
23543;SDS011;11950;51.230;4.012;2022-11-28T08:16:49;23.67;;;15.77;;
23543;SDS011;11950;51.230;4.012;2022-11-28T08:19:16;21.55;;;14.85;;
23543;SDS011;11950;51.230;4.012;2022-11-28T08:21:42;23.10;;;16.05;;
23543;SDS011;11950;51.230;4.012;2022-11-28T08:24:09;22.52;;;15.93;;
23543;SDS011;11950;51.230;4.012;2022-11-28T08:26:36;22.38;;;15.57;;
23543;SDS011;11950;51.230;4.012;2022-11-28T08:29:03;24.10;;;16.77;;
23543;SDS011;11950;51.230;4.012;2022-11-28T08:31:30;25.17;;;16.27;;
23543;SDS011;11950;51.230;4.012;2022-11-28T08:33:59;22.33;;;15.75;;
23543;SDS011;11950;51.230;4.012;2022-11-28T08:36:27;23.38;;;16.40;;
23543;SDS011;11950;51.230;4.012;2022-11-28T08:38:53;23.10;;;15.18;;
23543;SDS011;11950;51.230;4.012;2022-11-28T08:41:20;23.27;;;15.77;;
23543;SDS011;11950;51.230;4.012;2022-11-28T08:43:48;21.73;;;15.20;;
23543;SDS011;11950;51.230;4.012;2022-11-28T08:46:17;21.20;;;15.73;;
23543;SDS011;11950;51.230;4.012;2022-11-28T08:48:45;22.17;;;14.93;;
23543;SDS011;11950;51.230;4.012;2022-11-28T08:51:13;20.88;;;14.45;;
23543;SDS011;11950;51.230;4.012;2022-11-28T08:53:42;22.67;;;14.75;;
23543;SDS011;11950;51.230;4.012;2022-11-28T08:56:09;24.23;;;14.90;;
23543;SDS011;11950;51.230;4.012;2022-11-28T08:58:36;20.38;;;14.32;;
23543;SDS011;11950;51.230;4.012;2022-11-28T09:01:02;18.58;;;13.75;;
23543;SDS011;11950;51.230;4.012;2022-11-28T09:03:29;21.33;;;14.65;;
23543;SDS011;11950;51.230;4.012;2022-11-28T09:05:58;22.02;;;13.98;;
23543;SDS011;11950;51.230;4.012;2022-11-28T09:08:29;21.33;;;13.20;;
23543;SDS011;11950;51.230;4.012;2022-11-28T09:10:55;20.65;;;13.77;;
23543;SDS011;11950;51.230;4.012;2022-11-28T09:13:21;20.85;;;12.85;;
23543;SDS011;11950;51.230;4.012;2022-11-28T09:15:48;19.02;;;11.70;;
23543;SDS011;11950;51.230;4.012;2022-11-28T09:18:14;21.05;;;13.50;;
23543;SDS011;11950;51.230;4.012;2022-11-28T09:20:41;19.50;;;12.75;;
23543;SDS011;11950;51.230;4.012;2022-11-28T09:23:07;17.05;;;12.13;;
23543;SDS011;11950;51.230;4.012;2022-11-28T09:25:34;16.77;;;12.70;;
23543;SDS011;11950;51.230;4.012;2022-11-28T09:28:04;16.52;;;12.23;;
23543;SDS011;11950;51.230;4.012;2022-11-28T09:30:31;17.48;;;12.23;;
23543;SDS011;11950;51.230;4.012;2022-11-28T09:32:58;24.33;;;13.13;;
23543;SDS011;11950;51.230;4.012;2022-11-28T09:35:24;17.15;;;12.23;;
23543;SDS011;11950;51.230;4.012;2022-11-28T09:37:51;18.75;;;12.23;;
23543;SDS011;11950;51.230;4.012;2022-11-28T09:40:19;13.48;;;11.82;;
23543;SDS011;11950;51.230;4.012;2022-11-28T09:43:00;17.80;;;12.07;;
23543;SDS011;11950;51.230;4.012;2022-11-28T09:45:28;16.15;;;11.30;;
23543;SDS011;11950;51.230;4.012;2022-11-28T09:48:02;18.15;;;12.13;;
23543;SDS011;11950;51.230;4.012;2022-11-28T09:50:50;19.38;;;12.52;;
23543;SDS011;11950;51.230;4.012;2022-11-28T09:53:28;15.73;;;12.15;;
23543;SDS011;11950;51.230;4.012;2022-11-28T09:56:12;17.17;;;12.43;;
23543;SDS011;11950;51.230;4.012;2022-11-28T09:58:42;19.75;;;12.80;;
23543;SDS011;11950;51.230;4.012;2022-11-28T10:01:16;18.40;;;12.57;;
23543;SDS011;11950;51.230;4.012;2022-11-28T10:03:53;19.05;;;13.13;;
23543;SDS011;11950;51.230;4.012;2022-11-28T10:06:30;16.85;;;13.05;;
23543;SDS011;11950;51.230;4.012;2022-11-28T10:12:59;17.90;;;12.90;;
23543;SDS011;11950;51.230;4.012;2022-11-28T10:20:26;23.08;;;13.18;;
23543;SDS011;11950;51.230;4.012;2022-11-28T10:23:04;24.52;;;13.23;;
23543;SDS011;11950;51.230;4.012;2022-11-28T10:25:55;19.15;;;12.50;;
23543;SDS011;11950;51.230;4.012;2022-11-28T10:28:27;18.23;;;12.40;;
23543;SDS011;11950;51.230;4.012;2022-11-28T10:31:26;16.00;;;12.23;;
23543;SDS011;11950;51.230;4.012;2022-11-28T10:37:00;17.85;;;12.10;;
23543;SDS011;11950;51.230;4.012;2022-11-28T10:39:33;16.40;;;12.32;;
23543;SDS011;11950;51.230;4.012;2022-11-28T10:42:03;18.25;;;12.65;;
23543;SDS011;11950;51.230;4.012;2022-11-28T10:50:20;29.10;;;14.88;;
23543;SDS011;11950;51.230;4.012;2022-11-28T10:52:58;20.73;;;14.07;;
23543;SDS011;11950;51.230;4.012;2022-11-28T11:01:12;23.35;;;14.63;;
23543;SDS011;11950;51.230;4.012;2022-11-28T11:03:39;20.42;;;14.10;;
23543;SDS011;11950;51.230;4.012;2022-11-28T11:06:06;51.00;;;17.60;;
23543;SDS011;11950;51.230;4.012;2022-11-28T11:08:36;97.80;;;24.60;;
23543;SDS011;11950;51.230;4.012;2022-11-28T11:13:33;23.05;;;15.00;;
23543;SDS011;11950;51.230;4.012;2022-11-28T11:16:19;21.83;;;14.25;;
23543;SDS011;11950;51.230;4.012;2022-11-28T11:26:38;24.27;;;14.55;;
23543;SDS011;11950;51.230;4.012;2022-11-28T11:31:53;26.33;;;16.27;;
23543;SDS011;11950;51.230;4.012;2022-11-28T11:34:20;26.52;;;16.20;;
23543;SDS011;11950;51.230;4.012;2022-11-28T11:36:48;25.45;;;16.33;;
23543;SDS011;11950;51.230;4.012;2022-11-28T11:41:47;25.73;;;17.63;;
23543;SDS011;11950;51.230;4.012;2022-11-28T11:47:05;28.98;;;18.30;;
23543;SDS011;11950;51.230;4.012;2022-11-28T11:49:39;36.85;;;19.55;;
23543;SDS011;11950;51.230;4.012;2022-11-28T11:57:21;33.13;;;19.98;;
23543;SDS011;11950;51.230;4.012;2022-11-28T11:59:52;29.42;;;20.10;;
23543;SDS011;11950;51.230;4.012;2022-11-28T12:05:13;28.02;;;18.25;;
23543;SDS011;11950;51.230;4.012;2022-11-28T12:10:21;26.85;;;17.08;;
23543;SDS011;11950;51.230;4.012;2022-11-28T12:12:50;27.02;;;16.63;;
23543;SDS011;11950;51.230;4.012;2022-11-28T12:21:28;29.08;;;15.48;;
23543;SDS011;11950;51.230;4.012;2022-11-28T12:29:21;28.17;;;15.35;;
23543;SDS011;11950;51.230;4.012;2022-11-28T12:54:04;25.42;;;14.80;;
23543;SDS011;11950;51.230;4.012;2022-11-28T12:56:44;26.23;;;14.38;;
23543;SDS011;11950;51.230;4.012;2022-11-28T12:59:57;22.83;;;14.20;;
23543;SDS011;11950;51.230;4.012;2022-11-28T13:04:59;24.75;;;14.23;;
23543;SDS011;11950;51.230;4.012;2022-11-28T13:08:10;30.45;;;14.27;;
23543;SDS011;11950;51.230;4.012;2022-11-28T13:10:44;22.85;;;13.68;;
23543;SDS011;11950;51.230;4.012;2022-11-28T13:13:55;26.30;;;14.15;;
23543;SDS011;11950;51.230;4.012;2022-11-28T13:16:28;23.63;;;13.77;;
23543;SDS011;11950;51.230;4.012;2022-11-28T13:21:52;22.95;;;13.38;;
23543;SDS011;11950;51.230;4.012;2022-11-28T13:24:48;26.02;;;13.88;;
23543;SDS011;11950;51.230;4.012;2022-11-28T13:30:21;28.58;;;12.98;;
23543;SDS011;11950;51.230;4.012;2022-11-28T13:35:30;25.33;;;14.10;;
23543;SDS011;11950;51.230;4.012;2022-11-28T13:38:10;22.10;;;12.60;;
23543;SDS011;11950;51.230;4.012;2022-11-28T13:41:15;24.48;;;13.00;;
23543;SDS011;11950;51.230;4.012;2022-11-28T13:46:12;24.05;;;12.93;;
23543;SDS011;11950;51.230;4.012;2022-11-28T13:53:44;21.50;;;12.20;;
23543;SDS011;11950;51.230;4.012;2022-11-28T13:58:57;23.50;;;12.15;;
23543;SDS011;11950;51.230;4.012;2022-11-28T14:01:43;26.85;;;11.80;;
23543;SDS011;11950;51.230;4.012;2022-11-28T14:04:12;28.20;;;12.65;;
23543;SDS011;11950;51.230;4.012;2022-11-28T14:06:44;25.98;;;11.73;;
23543;SDS011;11950;51.230;4.012;2022-11-28T14:12:24;21.60;;;11.85;;
23543;SDS011;11950;51.230;4.012;2022-11-28T14:15:47;23.92;;;12.00;;
23543;SDS011;11950;51.230;4.012;2022-11-28T14:24:17;24.08;;;12.25;;
23543;SDS011;11950;51.230;4.012;2022-11-28T14:27:01;27.08;;;12.15;;
23543;SDS011;11950;51.230;4.012;2022-11-28T14:29:33;24.27;;;11.70;;
23543;SDS011;11950;51.230;4.012;2022-11-28T14:32:04;27.77;;;12.77;;
23543;SDS011;11950;51.230;4.012;2022-11-28T14:39:48;22.60;;;12.40;;
23543;SDS011;11950;51.230;4.012;2022-11-28T14:52:46;29.52;;;11.02;;
23543;SDS011;11950;51.230;4.012;2022-11-28T14:58:01;29.60;;;12.18;;
23543;SDS011;11950;51.230;4.012;2022-11-28T15:00:36;25.63;;;11.65;;
23543;SDS011;11950;51.230;4.012;2022-11-28T15:03:37;28.27;;;11.07;;
23543;SDS011;11950;51.230;4.012;2022-11-28T15:06:20;21.25;;;10.77;;
23543;SDS011;11950;51.230;4.012;2022-11-28T15:09:02;24.17;;;11.40;;
23543;SDS011;11950;51.230;4.012;2022-11-28T15:14:17;25.08;;;12.45;;
23543;SDS011;11950;51.230;4.012;2022-11-28T15:16:48;26.70;;;12.07;;
23543;SDS011;11950;51.230;4.012;2022-11-28T15:19:21;35.22;;;13.27;;
23543;SDS011;11950;51.230;4.012;2022-11-28T15:21:51;30.02;;;12.70;;
23543;SDS011;11950;51.230;4.012;2022-11-28T15:26:54;26.55;;;12.23;;
23543;SDS011;11950;51.230;4.012;2022-11-28T15:29:23;25.00;;;12.45;;
23543;SDS011;11950;51.230;4.012;2022-11-28T15:31:52;28.55;;;11.98;;
23543;SDS011;11950;51.230;4.012;2022-11-28T15:36:52;33.25;;;13.07;;
23543;SDS011;11950;51.230;4.012;2022-11-28T15:39:39;28.85;;;13.73;;
23543;SDS011;11950;51.230;4.012;2022-11-28T15:42:08;31.42;;;14.30;;
23543;SDS011;11950;51.230;4.012;2022-11-28T15:47:48;28.75;;;14.55;;
23543;SDS011;11950;51.230;4.012;2022-11-28T15:50:23;27.90;;;15.13;;
23543;SDS011;11950;51.230;4.012;2022-11-28T15:55:19;29.25;;;14.15;;
23543;SDS011;11950;51.230;4.012;2022-11-28T15:57:47;27.02;;;13.30;;
23543;SDS011;11950;51.230;4.012;2022-11-28T16:00:17;28.27;;;13.23;;
23543;SDS011;11950;51.230;4.012;2022-11-28T16:02:45;29.95;;;12.68;;
23543;SDS011;11950;51.230;4.012;2022-11-28T16:05:19;26.63;;;12.65;;
23543;SDS011;11950;51.230;4.012;2022-11-28T16:07:48;25.42;;;12.23;;
23543;SDS011;11950;51.230;4.012;2022-11-28T16:10:20;24.27;;;11.75;;
23543;SDS011;11950;51.230;4.012;2022-11-28T16:12:56;28.83;;;11.30;;
23543;SDS011;11950;51.230;4.012;2022-11-28T16:15:28;30.02;;;12.50;;
23543;SDS011;11950;51.230;4.012;2022-11-28T16:17:56;21.48;;;11.23;;
23543;SDS011;11950;51.230;4.012;2022-11-28T16:20:23;28.33;;;11.65;;
23543;SDS011;11950;51.230;4.012;2022-11-28T16:22:59;25.13;;;9.20;;
23543;SDS011;11950;51.230;4.012;2022-11-28T16:25:31;25.95;;;10.50;;
23543;SDS011;11950;51.230;4.012;2022-11-28T16:27:58;20.45;;;10.73;;
23543;SDS011;11950;51.230;4.012;2022-11-28T16:30:30;24.08;;;11.23;;
23543;SDS011;11950;51.230;4.012;2022-11-28T16:33:02;23.67;;;11.57;;
23543;SDS011;11950;51.230;4.012;2022-11-28T16:35:48;22.75;;;10.75;;
23543;SDS011;11950;51.230;4.012;2022-11-28T16:40:48;25.63;;;12.25;;
23543;SDS011;11950;51.230;4.012;2022-11-28T16:43:23;19.10;;;10.98;;
23543;SDS011;11950;51.230;4.012;2022-11-28T16:45:59;23.42;;;12.27;;
23543;SDS011;11950;51.230;4.012;2022-11-28T16:51:15;25.52;;;11.05;;
23543;SDS011;11950;51.230;4.012;2022-11-28T16:58:59;25.33;;;12.00;;
23543;SDS011;11950;51.230;4.012;2022-11-28T17:01:44;22.38;;;12.00;;
23543;SDS011;11950;51.230;4.012;2022-11-28T17:04:19;26.73;;;12.55;;
23543;SDS011;11950;51.230;4.012;2022-11-28T17:06:47;19.75;;;11.93;;
23543;SDS011;11950;51.230;4.012;2022-11-28T17:09:15;22.75;;;13.57;;
23543;SDS011;11950;51.230;4.012;2022-11-28T17:14:39;28.23;;;14.52;;
23543;SDS011;11950;51.230;4.012;2022-11-28T17:17:15;25.58;;;15.00;;
23543;SDS011;11950;51.230;4.012;2022-11-28T17:19:42;24.63;;;13.55;;
23543;SDS011;11950;51.230;4.012;2022-11-28T17:22:13;27.40;;;14.15;;
23543;SDS011;11950;51.230;4.012;2022-11-28T17:24:45;24.05;;;14.60;;
23543;SDS011;11950;51.230;4.012;2022-11-28T17:27:12;22.63;;;14.40;;
23543;SDS011;11950;51.230;4.012;2022-11-28T17:29:39;26.17;;;14.35;;
23543;SDS011;11950;51.230;4.012;2022-11-28T17:32:06;30.67;;;15.65;;
23543;SDS011;11950;51.230;4.012;2022-11-28T17:34:36;24.63;;;14.90;;
23543;SDS011;11950;51.230;4.012;2022-11-28T17:37:03;28.75;;;16.15;;
23543;SDS011;11950;51.230;4.012;2022-11-28T17:39:29;27.75;;;16.52;;
23543;SDS011;11950;51.230;4.012;2022-11-28T17:41:56;23.88;;;15.20;;
23543;SDS011;11950;51.230;4.012;2022-11-28T17:44:24;27.77;;;14.05;;
23543;SDS011;11950;51.230;4.012;2022-11-28T17:46:53;25.67;;;14.30;;
23543;SDS011;11950;51.230;4.012;2022-11-28T17:49:21;28.88;;;15.57;;
23543;SDS011;11950;51.230;4.012;2022-11-28T17:51:49;22.52;;;14.35;;
23543;SDS011;11950;51.230;4.012;2022-11-28T17:54:17;30.00;;;14.90;;
23543;SDS011;11950;51.230;4.012;2022-11-28T17:56:46;26.30;;;15.68;;
23543;SDS011;11950;51.230;4.012;2022-11-28T17:59:14;24.48;;;14.73;;
23543;SDS011;11950;51.230;4.012;2022-11-28T18:01:42;28.30;;;15.90;;
23543;SDS011;11950;51.230;4.012;2022-11-28T18:04:09;25.92;;;16.15;;
23543;SDS011;11950;51.230;4.012;2022-11-28T18:06:35;26.52;;;15.68;;
23543;SDS011;11950;51.230;4.012;2022-11-28T18:09:02;24.50;;;15.23;;
23543;SDS011;11950;51.230;4.012;2022-11-28T18:11:32;27.73;;;17.17;;
23543;SDS011;11950;51.230;4.012;2022-11-28T18:14:00;31.33;;;19.08;;
23543;SDS011;11950;51.230;4.012;2022-11-28T18:16:27;32.15;;;18.70;;
23543;SDS011;11950;51.230;4.012;2022-11-28T18:18:55;31.13;;;18.98;;
23543;SDS011;11950;51.230;4.012;2022-11-28T18:21:23;32.10;;;18.40;;
23543;SDS011;11950;51.230;4.012;2022-11-28T18:23:51;42.42;;;22.55;;
23543;SDS011;11950;51.230;4.012;2022-11-28T18:26:20;37.60;;;21.33;;
23543;SDS011;11950;51.230;4.012;2022-11-28T18:28:49;32.65;;;20.25;;
23543;SDS011;11950;51.230;4.012;2022-11-28T18:31:18;34.40;;;21.38;;
23543;SDS011;11950;51.230;4.012;2022-11-28T18:33:52;34.03;;;20.42;;
23543;SDS011;11950;51.230;4.012;2022-11-28T18:36:23;39.20;;;24.83;;